sensor_id;sensor_type;location;lat;lon;timestamp;P1;durP1;ratioP1;P2;durP2;ratioP2
43803;SDS011;29430;52.924;-2.388;2023-07-29T00:00:32;1.77;;;0.40;;
43803;SDS011;29430;52.924;-2.388;2023-07-29T00:05:24;2.97;;;0.40;;
43803;SDS011;29430;52.924;-2.388;2023-07-29T00:10:16;0.98;;;0.30;;
43803;SDS011;29430;52.924;-2.388;2023-07-29T00:15:08;1.58;;;0.35;;
43803;SDS011;29430;52.924;-2.388;2023-07-29T00:20:00;2.92;;;0.30;;
43803;SDS011;29430;52.924;-2.388;2023-07-29T00:24:52;3.13;;;0.50;;
43803;SDS011;29430;52.924;-2.388;2023-07-29T00:29:48;1.70;;;0.30;;
43803;SDS011;29430;52.924;-2.388;2023-07-29T00:34:40;1.25;;;0.40;;
43803;SDS011;29430;52.924;-2.388;2023-07-29T00:39:32;4.13;;;0.38;;
43803;SDS011;29430;52.924;-2.388;2023-07-29T00:44:24;2.88;;;0.30;;
43803;SDS011;29430;52.924;-2.388;2023-07-29T00:49:16;1.33;;;0.30;;
43803;SDS011;29430;52.924;-2.388;2023-07-29T00:54:08;1.05;;;0.30;;
43803;SDS011;29430;52.924;-2.388;2023-07-29T00:59:00;1.45;;;0.30;;
43803;SDS011;29430;52.924;-2.388;2023-07-29T01:03:53;1.10;;;0.30;;
43803;SDS011;29430;52.924;-2.388;2023-07-29T01:09:04;2.42;;;0.30;;
43803;SDS011;29430;52.924;-2.388;2023-07-29T01:14:06;3.88;;;0.40;;
43803;SDS011;29430;52.924;-2.388;2023-07-29T01:23:58;1.90;;;0.30;;
43803;SDS011;29430;52.924;-2.388;2023-07-29T01:28:50;2.63;;;0.30;;
43803;SDS011;29430;52.924;-2.388;2023-07-29T01:33:44;2.55;;;0.30;;
43803;SDS011;29430;52.924;-2.388;2023-07-29T01:38:41;2.22;;;0.40;;
43803;SDS011;29430;52.924;-2.388;2023-07-29T01:43:36;3.17;;;0.40;;
43803;SDS011;29430;52.924;-2.388;2023-07-29T01:48:38;3.65;;;0.40;;
43803;SDS011;29430;52.924;-2.388;2023-07-29T01:53:30;4.40;;;0.52;;
43803;SDS011;29430;52.924;-2.388;2023-07-29T01:58:22;2.75;;;0.40;;
43803;SDS011;29430;52.924;-2.388;2023-07-29T02:03:14;3.65;;;0.32;;
43803;SDS011;29430;52.924;-2.388;2023-07-29T02:08:06;4.13;;;0.60;;
43803;SDS011;29430;52.924;-2.388;2023-07-29T02:12:58;3.30;;;0.60;;
43803;SDS011;29430;52.924;-2.388;2023-07-29T02:17:50;1.75;;;0.40;;
43803;SDS011;29430;52.924;-2.388;2023-07-29T02:22:42;4.90;;;0.60;;
43803;SDS011;29430;52.924;-2.388;2023-07-29T02:27:33;3.78;;;0.40;;
43803;SDS011;29430;52.924;-2.388;2023-07-29T02:32:25;2.70;;;0.40;;
43803;SDS011;29430;52.924;-2.388;2023-07-29T02:37:17;3.85;;;0.45;;
43803;SDS011;29430;52.924;-2.388;2023-07-29T02:42:09;2.40;;;0.40;;
43803;SDS011;29430;52.924;-2.388;2023-07-29T02:47:00;2.75;;;0.50;;
43803;SDS011;29430;52.924;-2.388;2023-07-29T02:51:52;1.98;;;0.50;;
43803;SDS011;29430;52.924;-2.388;2023-07-29T02:56:44;6.15;;;0.50;;
43803;SDS011;29430;52.924;-2.388;2023-07-29T03:01:36;3.75;;;0.80;;
43803;SDS011;29430;52.924;-2.388;2023-07-29T03:06:28;3.88;;;0.40;;
43803;SDS011;29430;52.924;-2.388;2023-07-29T03:11:19;3.53;;;0.47;;
43803;SDS011;29430;52.924;-2.388;2023-07-29T03:16:12;4.75;;;0.50;;
43803;SDS011;29430;52.924;-2.388;2023-07-29T03:21:05;3.17;;;0.50;;
43803;SDS011;29430;52.924;-2.388;2023-07-29T03:25:58;3.53;;;0.57;;
43803;SDS011;29430;52.924;-2.388;2023-07-29T03:30:51;4.85;;;0.60;;
43803;SDS011;29430;52.924;-2.388;2023-07-29T03:35:42;5.18;;;0.68;;
43803;SDS011;29430;52.924;-2.388;2023-07-29T03:40:36;6.45;;;0.60;;
43803;SDS011;29430;52.924;-2.388;2023-07-29T03:45:27;6.35;;;0.95;;
43803;SDS011;29430;52.924;-2.388;2023-07-29T03:50:19;5.05;;;0.65;;
43803;SDS011;29430;52.924;-2.388;2023-07-29T03:55:11;7.45;;;0.90;;
43803;SDS011;29430;52.924;-2.388;2023-07-29T04:00:03;4.03;;;0.60;;
43803;SDS011;29430;52.924;-2.388;2023-07-29T04:04:55;6.95;;;0.82;;
43803;SDS011;29430;52.924;-2.388;2023-07-29T04:09:46;5.60;;;0.65;;
43803;SDS011;29430;52.924;-2.388;2023-07-29T04:14:38;6.13;;;0.77;;
43803;SDS011;29430;52.924;-2.388;2023-07-29T04:19:30;4.65;;;0.70;;
43803;SDS011;29430;52.924;-2.388;2023-07-29T04:24:22;4.38;;;0.60;;
43803;SDS011;29430;52.924;-2.388;2023-07-29T04:29:14;5.18;;;0.90;;
43803;SDS011;29430;52.924;-2.388;2023-07-29T04:34:06;4.10;;;0.68;;
43803;SDS011;29430;52.924;-2.388;2023-07-29T04:38:58;6.18;;;0.63;;
43803;SDS011;29430;52.924;-2.388;2023-07-29T04:43:50;3.53;;;0.60;;
43803;SDS011;29430;52.924;-2.388;2023-07-29T04:48:41;3.13;;;0.60;;
43803;SDS011;29430;52.924;-2.388;2023-07-29T04:53:33;5.68;;;0.60;;
43803;SDS011;29430;52.924;-2.388;2023-07-29T04:58:26;5.32;;;0.75;;
43803;SDS011;29430;52.924;-2.388;2023-07-29T05:03:20;6.68;;;0.65;;
43803;SDS011;29430;52.924;-2.388;2023-07-29T05:08:11;4.78;;;0.50;;
43803;SDS011;29430;52.924;-2.388;2023-07-29T05:13:03;7.07;;;0.82;;
43803;SDS011;29430;52.924;-2.388;2023-07-29T05:17:55;5.40;;;0.60;;
43803;SDS011;29430;52.924;-2.388;2023-07-29T05:22:47;2.45;;;0.60;;
43803;SDS011;29430;52.924;-2.388;2023-07-29T05:27:39;3.92;;;0.60;;
43803;SDS011;29430;52.924;-2.388;2023-07-29T05:32:30;7.20;;;0.63;;
43803;SDS011;29430;52.924;-2.388;2023-07-29T05:37:22;4.90;;;0.60;;
43803;SDS011;29430;52.924;-2.388;2023-07-29T05:42:14;5.35;;;0.77;;
43803;SDS011;29430;52.924;-2.388;2023-07-29T05:47:05;4.70;;;0.70;;
43803;SDS011;29430;52.924;-2.388;2023-07-29T05:51:57;8.98;;;1.08;;
43803;SDS011;29430;52.924;-2.388;2023-07-29T05:56:49;5.80;;;0.70;;
43803;SDS011;29430;52.924;-2.388;2023-07-29T06:01:41;9.07;;;0.73;;
43803;SDS011;29430;52.924;-2.388;2023-07-29T06:06:32;8.25;;;0.85;;
43803;SDS011;29430;52.924;-2.388;2023-07-29T06:11:25;5.05;;;0.73;;
43803;SDS011;29430;52.924;-2.388;2023-07-29T06:16:16;3.22;;;0.70;;
43803;SDS011;29430;52.924;-2.388;2023-07-29T06:21:08;3.58;;;0.70;;
43803;SDS011;29430;52.924;-2.388;2023-07-29T06:26:03;5.13;;;0.82;;
43803;SDS011;29430;52.924;-2.388;2023-07-29T06:30:55;5.57;;;0.88;;
43803;SDS011;29430;52.924;-2.388;2023-07-29T06:35:47;6.65;;;0.70;;
43803;SDS011;29430;52.924;-2.388;2023-07-29T06:40:38;5.97;;;0.70;;
43803;SDS011;29430;52.924;-2.388;2023-07-29T06:45:30;3.75;;;0.70;;
43803;SDS011;29430;52.924;-2.388;2023-07-29T06:50:22;6.60;;;1.02;;
43803;SDS011;29430;52.924;-2.388;2023-07-29T06:55:14;8.88;;;0.93;;
43803;SDS011;29430;52.924;-2.388;2023-07-29T07:00:05;3.65;;;0.50;;
43803;SDS011;29430;52.924;-2.388;2023-07-29T07:04:58;6.10;;;0.60;;
43803;SDS011;29430;52.924;-2.388;2023-07-29T07:09:49;3.83;;;0.77;;
43803;SDS011;29430;52.924;-2.388;2023-07-29T07:14:41;4.47;;;0.68;;
43803;SDS011;29430;52.924;-2.388;2023-07-29T07:19:33;4.82;;;0.60;;
43803;SDS011;29430;52.924;-2.388;2023-07-29T07:24:24;5.03;;;0.77;;
43803;SDS011;29430;52.924;-2.388;2023-07-29T07:29:16;6.53;;;1.27;;
43803;SDS011;29430;52.924;-2.388;2023-07-29T07:34:08;7.53;;;0.65;;
43803;SDS011;29430;52.924;-2.388;2023-07-29T07:39:00;3.88;;;0.65;;
43803;SDS011;29430;52.924;-2.388;2023-07-29T07:43:51;2.72;;;0.70;;
43803;SDS011;29430;52.924;-2.388;2023-07-29T07:48:43;5.47;;;0.70;;
43803;SDS011;29430;52.924;-2.388;2023-07-29T07:53:35;6.75;;;0.60;;
43803;SDS011;29430;52.924;-2.388;2023-07-29T07:58:27;2.78;;;0.43;;
43803;SDS011;29430;52.924;-2.388;2023-07-29T08:03:18;5.88;;;0.65;;
43803;SDS011;29430;52.924;-2.388;2023-07-29T08:08:10;4.25;;;0.50;;
43803;SDS011;29430;52.924;-2.388;2023-07-29T08:13:02;4.47;;;0.60;;
43803;SDS011;29430;52.924;-2.388;2023-07-29T08:17:53;3.13;;;0.40;;
43803;SDS011;29430;52.924;-2.388;2023-07-29T08:22:45;3.85;;;0.50;;
43803;SDS011;29430;52.924;-2.388;2023-07-29T08:27:37;5.43;;;0.40;;
43803;SDS011;29430;52.924;-2.388;2023-07-29T08:32:28;3.70;;;0.55;;
43803;SDS011;29430;52.924;-2.388;2023-07-29T08:37:20;2.75;;;0.40;;
43803;SDS011;29430;52.924;-2.388;2023-07-29T08:42:12;4.25;;;0.47;;
43803;SDS011;29430;52.924;-2.388;2023-07-29T08:47:06;5.30;;;0.55;;
43803;SDS011;29430;52.924;-2.388;2023-07-29T08:51:58;3.70;;;0.57;;
43803;SDS011;29430;52.924;-2.388;2023-07-29T08:56:50;3.63;;;0.40;;
43803;SDS011;29430;52.924;-2.388;2023-07-29T09:01:42;5.30;;;0.50;;
43803;SDS011;29430;52.924;-2.388;2023-07-29T09:06:34;3.15;;;0.38;;
43803;SDS011;29430;52.924;-2.388;2023-07-29T09:11:28;4.53;;;0.50;;
43803;SDS011;29430;52.924;-2.388;2023-07-29T09:16:20;4.70;;;0.40;;
43803;SDS011;29430;52.924;-2.388;2023-07-29T09:21:13;4.97;;;0.43;;
43803;SDS011;29430;52.924;-2.388;2023-07-29T09:26:06;2.90;;;0.32;;
43803;SDS011;29430;52.924;-2.388;2023-07-29T09:30:58;4.65;;;0.40;;
43803;SDS011;29430;52.924;-2.388;2023-07-29T09:35:50;6.57;;;0.60;;
43803;SDS011;29430;52.924;-2.388;2023-07-29T09:40:42;7.35;;;0.50;;
43803;SDS011;29430;52.924;-2.388;2023-07-29T09:45:36;10.65;;;1.15;;
43803;SDS011;29430;52.924;-2.388;2023-07-29T09:50:29;4.63;;;0.55;;
43803;SDS011;29430;52.924;-2.388;2023-07-29T09:55:21;3.33;;;0.55;;
43803;SDS011;29430;52.924;-2.388;2023-07-29T10:00:15;3.95;;;0.40;;
43803;SDS011;29430;52.924;-2.388;2023-07-29T10:05:07;5.50;;;0.60;;
43803;SDS011;29430;52.924;-2.388;2023-07-29T10:10:00;7.15;;;0.57;;
43803;SDS011;29430;52.924;-2.388;2023-07-29T10:14:55;7.63;;;0.75;;
43803;SDS011;29430;52.924;-2.388;2023-07-29T10:19:51;4.27;;;0.50;;
43803;SDS011;29430;52.924;-2.388;2023-07-29T10:24:43;4.93;;;0.65;;
43803;SDS011;29430;52.924;-2.388;2023-07-29T10:29:38;7.55;;;0.82;;
43803;SDS011;29430;52.924;-2.388;2023-07-29T10:34:34;6.88;;;0.60;;
43803;SDS011;29430;52.924;-2.388;2023-07-29T10:39:27;5.72;;;0.50;;
43803;SDS011;29430;52.924;-2.388;2023-07-29T10:49:30;5.95;;;0.50;;
43803;SDS011;29430;52.924;-2.388;2023-07-29T10:54:26;3.75;;;0.50;;
43803;SDS011;29430;52.924;-2.388;2023-07-29T11:14:45;5.18;;;0.40;;
43803;SDS011;29430;52.924;-2.388;2023-07-29T11:19:37;3.30;;;0.60;;
43803;SDS011;29430;52.924;-2.388;2023-07-29T11:24:30;4.65;;;0.70;;
43803;SDS011;29430;52.924;-2.388;2023-07-29T11:29:22;2.15;;;0.40;;
43803;SDS011;29430;52.924;-2.388;2023-07-29T11:34:15;3.63;;;0.45;;
43803;SDS011;29430;52.924;-2.388;2023-07-29T11:39:11;3.28;;;0.52;;
43803;SDS011;29430;52.924;-2.388;2023-07-29T11:44:03;3.67;;;0.50;;
43803;SDS011;29430;52.924;-2.388;2023-07-29T11:48:55;2.90;;;0.30;;
43803;SDS011;29430;52.924;-2.388;2023-07-29T11:53:46;1.63;;;0.30;;
43803;SDS011;29430;52.924;-2.388;2023-07-29T11:58:38;1.75;;;0.30;;
43803;SDS011;29430;52.924;-2.388;2023-07-29T12:03:30;4.70;;;0.82;;
43803;SDS011;29430;52.924;-2.388;2023-07-29T12:08:23;3.25;;;0.40;;
43803;SDS011;29430;52.924;-2.388;2023-07-29T12:13:15;2.60;;;0.40;;
43803;SDS011;29430;52.924;-2.388;2023-07-29T12:18:07;3.97;;;0.40;;
43803;SDS011;29430;52.924;-2.388;2023-07-29T12:22:59;4.72;;;0.40;;
43803;SDS011;29430;52.924;-2.388;2023-07-29T12:28:02;2.58;;;0.20;;
43803;SDS011;29430;52.924;-2.388;2023-07-29T12:32:57;3.55;;;0.30;;
43803;SDS011;29430;52.924;-2.388;2023-07-29T12:37:59;1.85;;;0.20;;
43803;SDS011;29430;52.924;-2.388;2023-07-29T12:42:51;1.17;;;0.20;;
43803;SDS011;29430;52.924;-2.388;2023-07-29T12:47:43;1.95;;;0.40;;
43803;SDS011;29430;52.924;-2.388;2023-07-29T12:52:35;3.30;;;0.35;;
43803;SDS011;29430;52.924;-2.388;2023-07-29T12:57:27;4.10;;;0.40;;
43803;SDS011;29430;52.924;-2.388;2023-07-29T13:02:18;1.88;;;0.30;;
43803;SDS011;29430;52.924;-2.388;2023-07-29T13:07:11;2.08;;;0.30;;
43803;SDS011;29430;52.924;-2.388;2023-07-29T13:12:02;4.30;;;0.32;;
43803;SDS011;29430;52.924;-2.388;2023-07-29T13:16:54;2.50;;;0.30;;
43803;SDS011;29430;52.924;-2.388;2023-07-29T13:21:46;3.47;;;0.30;;
43803;SDS011;29430;52.924;-2.388;2023-07-29T13:26:37;1.65;;;0.30;;
43803;SDS011;29430;52.924;-2.388;2023-07-29T13:31:30;6.07;;;0.30;;
43803;SDS011;29430;52.924;-2.388;2023-07-29T13:36:22;2.67;;;0.30;;
43803;SDS011;29430;52.924;-2.388;2023-07-29T13:41:14;2.55;;;0.40;;
43803;SDS011;29430;52.924;-2.388;2023-07-29T13:46:05;1.63;;;0.30;;
43803;SDS011;29430;52.924;-2.388;2023-07-29T13:50:57;3.25;;;0.20;;
43803;SDS011;29430;52.924;-2.388;2023-07-29T13:55:49;3.38;;;0.40;;
43803;SDS011;29430;52.924;-2.388;2023-07-29T14:00:41;1.85;;;0.30;;
43803;SDS011;29430;52.924;-2.388;2023-07-29T14:05:32;2.92;;;0.40;;
43803;SDS011;29430;52.924;-2.388;2023-07-29T14:10:24;3.28;;;0.40;;
43803;SDS011;29430;52.924;-2.388;2023-07-29T14:15:16;3.58;;;0.52;;
43803;SDS011;29430;52.924;-2.388;2023-07-29T14:20:08;1.98;;;0.30;;
43803;SDS011;29430;52.924;-2.388;2023-07-29T14:25:00;5.15;;;0.30;;
43803;SDS011;29430;52.924;-2.388;2023-07-29T14:29:52;4.00;;;0.30;;
43803;SDS011;29430;52.924;-2.388;2023-07-29T14:34:44;3.28;;;0.40;;
43803;SDS011;29430;52.924;-2.388;2023-07-29T14:39:36;5.13;;;0.52;;
43803;SDS011;29430;52.924;-2.388;2023-07-29T14:44:27;3.47;;;0.30;;
43803;SDS011;29430;52.924;-2.388;2023-07-29T14:49:19;3.10;;;0.30;;
43803;SDS011;29430;52.924;-2.388;2023-07-29T14:54:11;1.75;;;0.20;;
43803;SDS011;29430;52.924;-2.388;2023-07-29T14:59:02;1.42;;;0.40;;
43803;SDS011;29430;52.924;-2.388;2023-07-29T15:03:54;1.48;;;0.20;;
43803;SDS011;29430;52.924;-2.388;2023-07-29T15:08:46;2.72;;;0.32;;
43803;SDS011;29430;52.924;-2.388;2023-07-29T15:13:38;3.70;;;0.30;;
43803;SDS011;29430;52.924;-2.388;2023-07-29T15:18:29;1.70;;;0.20;;
43803;SDS011;29430;52.924;-2.388;2023-07-29T15:23:21;2.28;;;0.32;;
43803;SDS011;29430;52.924;-2.388;2023-07-29T15:28:13;5.00;;;0.30;;
43803;SDS011;29430;52.924;-2.388;2023-07-29T15:33:05;1.58;;;0.30;;
43803;SDS011;29430;52.924;-2.388;2023-07-29T15:37:57;2.88;;;0.30;;
43803;SDS011;29430;52.924;-2.388;2023-07-29T15:42:49;1.73;;;0.25;;
43803;SDS011;29430;52.924;-2.388;2023-07-29T15:47:40;2.15;;;0.40;;
43803;SDS011;29430;52.924;-2.388;2023-07-29T15:52:32;3.30;;;0.40;;
43803;SDS011;29430;52.924;-2.388;2023-07-29T15:57:24;2.45;;;0.30;;
43803;SDS011;29430;52.924;-2.388;2023-07-29T16:02:16;1.25;;;0.30;;
43803;SDS011;29430;52.924;-2.388;2023-07-29T16:07:08;4.25;;;0.52;;
43803;SDS011;29430;52.924;-2.388;2023-07-29T16:11:59;3.05;;;0.40;;
43803;SDS011;29430;52.924;-2.388;2023-07-29T16:16:53;4.63;;;0.63;;
43803;SDS011;29430;52.924;-2.388;2023-07-29T16:21:44;3.08;;;0.40;;
43803;SDS011;29430;52.924;-2.388;2023-07-29T16:26:36;2.33;;;0.40;;
43803;SDS011;29430;52.924;-2.388;2023-07-29T16:31:28;2.63;;;0.40;;
43803;SDS011;29430;52.924;-2.388;2023-07-29T16:36:20;5.00;;;0.50;;
43803;SDS011;29430;52.924;-2.388;2023-07-29T16:41:12;6.68;;;0.63;;
43803;SDS011;29430;52.924;-2.388;2023-07-29T16:46:23;4.38;;;0.55;;
43803;SDS011;29430;52.924;-2.388;2023-07-29T16:51:15;3.75;;;0.40;;
43803;SDS011;29430;52.924;-2.388;2023-07-29T16:56:07;4.28;;;0.30;;
43803;SDS011;29430;52.924;-2.388;2023-07-29T17:00:59;5.25;;;0.65;;
43803;SDS011;29430;52.924;-2.388;2023-07-29T17:05:51;3.95;;;0.50;;
43803;SDS011;29430;52.924;-2.388;2023-07-29T17:10:46;3.80;;;0.73;;
43803;SDS011;29430;52.924;-2.388;2023-07-29T17:15:38;5.75;;;0.50;;
43803;SDS011;29430;52.924;-2.388;2023-07-29T17:20:30;4.38;;;0.40;;
43803;SDS011;29430;52.924;-2.388;2023-07-29T17:25:21;4.57;;;0.50;;
43803;SDS011;29430;52.924;-2.388;2023-07-29T17:30:14;3.50;;;0.50;;
43803;SDS011;29430;52.924;-2.388;2023-07-29T17:35:06;4.45;;;0.40;;
43803;SDS011;29430;52.924;-2.388;2023-07-29T17:39:58;4.82;;;0.40;;
43803;SDS011;29430;52.924;-2.388;2023-07-29T17:44:50;4.03;;;0.45;;
43803;SDS011;29430;52.924;-2.388;2023-07-29T17:49:41;5.15;;;0.40;;
43803;SDS011;29430;52.924;-2.388;2023-07-29T17:54:33;4.72;;;0.43;;
43803;SDS011;29430;52.924;-2.388;2023-07-29T17:59:25;4.90;;;0.50;;
43803;SDS011;29430;52.924;-2.388;2023-07-29T18:04:16;5.55;;;0.50;;
43803;SDS011;29430;52.924;-2.388;2023-07-29T18:09:08;4.13;;;0.40;;
43803;SDS011;29430;52.924;-2.388;2023-07-29T18:14:00;4.32;;;0.30;;
43803;SDS011;29430;52.924;-2.388;2023-07-29T18:18:52;3.97;;;0.40;;
43803;SDS011;29430;52.924;-2.388;2023-07-29T18:23:43;4.53;;;0.43;;
43803;SDS011;29430;52.924;-2.388;2023-07-29T18:28:35;5.13;;;0.60;;
43803;SDS011;29430;52.924;-2.388;2023-07-29T18:33:27;7.85;;;0.50;;
43803;SDS011;29430;52.924;-2.388;2023-07-29T18:38:19;6.32;;;0.98;;
43803;SDS011;29430;52.924;-2.388;2023-07-29T18:43:10;3.22;;;0.38;;
43803;SDS011;29430;52.924;-2.388;2023-07-29T18:48:02;7.70;;;0.60;;
43803;SDS011;29430;52.924;-2.388;2023-07-29T18:52:55;5.40;;;0.45;;
43803;SDS011;29430;52.924;-2.388;2023-07-29T18:57:49;4.90;;;0.50;;
43803;SDS011;29430;52.924;-2.388;2023-07-29T19:02:41;5.70;;;0.40;;
43803;SDS011;29430;52.924;-2.388;2023-07-29T19:07:35;8.38;;;0.45;;
43803;SDS011;29430;52.924;-2.388;2023-07-29T19:12:27;5.75;;;0.40;;
43803;SDS011;29430;52.924;-2.388;2023-07-29T19:17:19;6.40;;;0.45;;
43803;SDS011;29430;52.924;-2.388;2023-07-29T19:22:11;6.45;;;0.57;;
43803;SDS011;29430;52.924;-2.388;2023-07-29T19:27:03;3.83;;;0.40;;
43803;SDS011;29430;52.924;-2.388;2023-07-29T19:36:52;6.90;;;0.40;;
43803;SDS011;29430;52.924;-2.388;2023-07-29T19:41:44;3.88;;;0.40;;
43803;SDS011;29430;52.924;-2.388;2023-07-29T19:46:36;4.55;;;0.52;;
43803;SDS011;29430;52.924;-2.388;2023-07-29T19:51:29;8.77;;;0.70;;
43803;SDS011;29430;52.924;-2.388;2023-07-29T19:56:22;5.93;;;0.63;;
43803;SDS011;29430;52.924;-2.388;2023-07-29T20:01:14;5.32;;;0.73;;
43803;SDS011;29430;52.924;-2.388;2023-07-29T20:06:06;5.82;;;0.70;;
43803;SDS011;29430;52.924;-2.388;2023-07-29T20:10:58;8.85;;;0.75;;
43803;SDS011;29430;52.924;-2.388;2023-07-29T20:15:50;8.93;;;0.80;;
43803;SDS011;29430;52.924;-2.388;2023-07-29T20:20:42;7.50;;;0.60;;
43803;SDS011;29430;52.924;-2.388;2023-07-29T20:25:34;8.95;;;0.50;;
43803;SDS011;29430;52.924;-2.388;2023-07-29T20:30:26;7.28;;;1.00;;
43803;SDS011;29430;52.924;-2.388;2023-07-29T20:35:21;7.20;;;0.70;;
43803;SDS011;29430;52.924;-2.388;2023-07-29T20:40:15;7.28;;;0.70;;
43803;SDS011;29430;52.924;-2.388;2023-07-29T20:45:06;10.93;;;0.80;;
43803;SDS011;29430;52.924;-2.388;2023-07-29T20:49:58;7.78;;;0.70;;
43803;SDS011;29430;52.924;-2.388;2023-07-29T20:54:50;7.88;;;0.70;;
43803;SDS011;29430;52.924;-2.388;2023-07-29T20:59:42;10.57;;;0.73;;
43803;SDS011;29430;52.924;-2.388;2023-07-29T21:04:34;10.98;;;0.77;;
43803;SDS011;29430;52.924;-2.388;2023-07-29T21:09:26;7.40;;;0.93;;
43803;SDS011;29430;52.924;-2.388;2023-07-29T21:14:18;9.57;;;0.85;;
43803;SDS011;29430;52.924;-2.388;2023-07-29T21:19:09;8.73;;;0.70;;
43803;SDS011;29430;52.924;-2.388;2023-07-29T21:24:01;7.05;;;0.80;;
43803;SDS011;29430;52.924;-2.388;2023-07-29T21:28:53;10.30;;;0.90;;
43803;SDS011;29430;52.924;-2.388;2023-07-29T21:33:44;9.18;;;0.90;;
43803;SDS011;29430;52.924;-2.388;2023-07-29T21:38:36;6.25;;;0.60;;
43803;SDS011;29430;52.924;-2.388;2023-07-29T21:43:28;11.60;;;1.10;;
43803;SDS011;29430;52.924;-2.388;2023-07-29T21:48:20;10.13;;;0.65;;
43803;SDS011;29430;52.924;-2.388;2023-07-29T21:53:11;9.23;;;0.90;;
43803;SDS011;29430;52.924;-2.388;2023-07-29T21:58:03;6.18;;;0.85;;
43803;SDS011;29430;52.924;-2.388;2023-07-29T22:02:55;10.65;;;0.88;;
43803;SDS011;29430;52.924;-2.388;2023-07-29T22:07:46;10.60;;;1.05;;
43803;SDS011;29430;52.924;-2.388;2023-07-29T22:12:38;7.90;;;0.63;;
43803;SDS011;29430;52.924;-2.388;2023-07-29T22:17:30;8.73;;;0.88;;
43803;SDS011;29430;52.924;-2.388;2023-07-29T22:22:21;11.48;;;0.80;;
43803;SDS011;29430;52.924;-2.388;2023-07-29T22:27:13;7.03;;;0.70;;
43803;SDS011;29430;52.924;-2.388;2023-07-29T22:32:05;7.57;;;0.75;;
43803;SDS011;29430;52.924;-2.388;2023-07-29T22:36:57;11.05;;;0.65;;
43803;SDS011;29430;52.924;-2.388;2023-07-29T22:41:49;7.93;;;0.82;;
43803;SDS011;29430;52.924;-2.388;2023-07-29T22:46:41;10.95;;;0.70;;
43803;SDS011;29430;52.924;-2.388;2023-07-29T22:51:33;11.00;;;0.70;;
43803;SDS011;29430;52.924;-2.388;2023-07-29T22:56:24;7.28;;;0.63;;
43803;SDS011;29430;52.924;-2.388;2023-07-29T23:01:16;7.43;;;0.60;;
43803;SDS011;29430;52.924;-2.388;2023-07-29T23:06:08;8.88;;;0.65;;
43803;SDS011;29430;52.924;-2.388;2023-07-29T23:11:00;8.18;;;0.60;;
43803;SDS011;29430;52.924;-2.388;2023-07-29T23:15:53;6.72;;;0.57;;
43803;SDS011;29430;52.924;-2.388;2023-07-29T23:20:45;7.78;;;0.55;;
43803;SDS011;29430;52.924;-2.388;2023-07-29T23:25:37;4.93;;;0.40;;
43803;SDS011;29430;52.924;-2.388;2023-07-29T23:30:28;8.32;;;0.68;;
43803;SDS011;29430;52.924;-2.388;2023-07-29T23:35:20;6.13;;;0.60;;
43803;SDS011;29430;52.924;-2.388;2023-07-29T23:40:12;9.30;;;0.50;;
43803;SDS011;29430;52.924;-2.388;2023-07-29T23:45:04;5.82;;;1.13;;
43803;SDS011;29430;52.924;-2.388;2023-07-29T23:49:56;10.93;;;0.70;;
43803;SDS011;29430;52.924;-2.388;2023-07-29T23:54:48;4.72;;;0.52;;
43803;SDS011;29430;52.924;-2.388;2023-07-29T23:59:39;10.25;;;1.10;;
